ADDS METAR Data INFO
IDs: Format: Raw Decoded Include TAF

Data at: 2339 UTC 18 Jul 2018

KMQY 182256Z 36008KT 10SM CLR 31/19 A2996 RMK AO2 SLP023 T03110189